createdAt,value
2022-09-03T00:00:58.123Z,17.00
2022-09-03T00:03:24.841Z,17.00
2022-09-03T00:05:56.725Z,16.90
2022-09-03T00:08:27.566Z,16.80
2022-09-03T00:10:59.698Z,16.80
2022-09-03T00:13:29.168Z,16.70
2022-09-03T00:15:57.251Z,16.80
2022-09-03T00:18:31.431Z,16.70
2022-09-03T00:21:08.726Z,16.70
2022-09-03T00:23:41.693Z,16.60
2022-09-03T00:26:11.304Z,16.60
2022-09-03T00:28:43.337Z,16.60
2022-09-03T00:31:16.423Z,16.50
2022-09-03T00:33:44.234Z,16.50
2022-09-03T00:36:20.926Z,16.50
2022-09-03T00:38:47.745Z,16.40
2022-09-03T00:41:14.828Z,16.40
2022-09-03T00:44:07.022Z,16.40
2022-09-03T00:46:42.121Z,16.40
2022-09-03T00:49:14.858Z,16.30
2022-09-03T00:51:50.475Z,16.30
2022-09-03T00:54:38.535Z,16.20
2022-09-03T00:57:25.852Z,16.20
2022-09-03T00:59:52.694Z,16.10
2022-09-03T01:02:33.599Z,16.10
2022-09-03T01:05:22.926Z,16.10
2022-09-03T06:36:45.947Z,21.80
2022-09-03T06:39:12.873Z,21.80
2022-09-03T06:41:40.149Z,22.00
2022-09-03T06:44:11.733Z,22.40
2022-09-03T06:46:39.841Z,22.60
2022-09-03T06:49:07.003Z,22.90
2022-09-03T06:51:33.942Z,23.30
2022-09-03T06:54:02.141Z,23.50
2022-09-03T06:56:28.920Z,23.80
2022-09-03T06:58:59.027Z,24.00
2022-09-03T07:01:26.977Z,24.20
2022-09-03T07:03:58.444Z,24.40
2022-09-03T07:06:27.334Z,24.60
2022-09-03T07:08:54.628Z,24.80
2022-09-03T07:11:24.161Z,25.20
2022-09-03T07:13:51.822Z,25.40
2022-09-03T07:16:19.858Z,25.50
2022-09-03T07:18:47.243Z,25.60
2022-09-03T07:21:18.455Z,25.60
2022-09-03T07:23:45.597Z,25.50
2022-09-03T07:26:14.012Z,25.50
2022-09-03T07:28:41.715Z,25.80
2022-09-03T07:31:10.762Z,26.10
2022-09-03T07:33:38.215Z,26.30
2022-09-03T07:36:06.697Z,26.20
2022-09-03T07:38:34.319Z,26.00
2022-09-03T07:41:02.177Z,25.80
2022-09-03T07:43:29.895Z,25.90
2022-09-03T07:45:57.182Z,26.20
2022-09-03T07:48:24.230Z,26.30
2022-09-03T07:50:51.038Z,26.40
2022-09-03T07:53:18.032Z,26.30
2022-09-03T07:55:45.171Z,26.40
2022-09-03T07:58:12.651Z,26.70
2022-09-03T08:00:39.688Z,27.10
2022-09-03T08:03:08.569Z,27.10
2022-09-03T08:05:36.368Z,27.10
2022-09-03T08:08:06.379Z,27.30
2022-09-03T08:10:38.300Z,27.50
2022-09-03T08:13:05.747Z,27.40
2022-09-03T08:15:33.000Z,27.50
2022-09-03T08:18:03.774Z,27.50
2022-09-03T08:20:32.828Z,27.20
2022-09-03T08:23:03.231Z,26.60
2022-09-03T08:25:30.063Z,26.60
2022-09-03T08:28:00.176Z,26.50
2022-09-03T08:30:27.687Z,26.20
2022-09-03T08:32:55.363Z,25.90
2022-09-03T08:35:22.546Z,25.70
2022-09-03T08:37:56.093Z,25.80
2022-09-03T08:40:24.337Z,25.50
2022-09-03T08:42:51.102Z,25.20
2022-09-03T08:45:19.539Z,25.10
2022-09-03T08:47:57.761Z,25.30
2022-09-03T08:50:26.404Z,25.40
2022-09-03T08:53:15.855Z,25.50
2022-09-03T08:55:46.892Z,25.40
2022-09-03T08:58:14.307Z,25.50
2022-09-03T09:00:47.534Z,25.50
2022-09-03T09:03:17.103Z,25.80
2022-09-03T09:05:43.932Z,25.60
2022-09-03T09:08:16.902Z,25.80
2022-09-03T09:10:48.219Z,26.00
2022-09-03T09:13:33.829Z,26.40
2022-09-03T09:16:14.959Z,26.50
2022-09-03T09:18:49.336Z,26.40
2022-09-03T09:21:22.011Z,26.20
2022-09-03T09:23:51.181Z,26.40
2022-09-03T09:26:19.547Z,26.50
2022-09-03T09:28:47.281Z,26.80
2022-09-03T09:31:19.085Z,26.80
2022-09-03T09:33:46.490Z,26.90
2022-09-03T09:36:16.438Z,27.20
2022-09-03T09:38:43.958Z,27.40
2022-09-03T09:41:10.842Z,27.20
2022-09-03T09:43:39.103Z,27.00
2022-09-03T09:46:26.114Z,27.00
2022-09-03T09:48:53.797Z,26.70
2022-09-03T09:51:31.100Z,26.40
2022-09-03T09:54:00.596Z,26.10
2022-09-03T09:56:27.418Z,26.00
2022-09-03T09:59:07.750Z,26.00
2022-09-03T10:01:38.164Z,26.00
2022-09-03T10:04:19.842Z,25.80
2022-09-03T10:06:53.854Z,25.70
2022-09-03T10:09:23.389Z,25.30
2022-09-03T10:12:09.550Z,25.00
2022-09-03T10:14:38.795Z,24.80
2022-09-03T10:17:31.835Z,24.80
2022-09-03T10:20:22.690Z,24.90
2022-09-03T10:22:57.301Z,24.70
2022-09-03T10:25:26.517Z,24.60
2022-09-03T10:27:54.649Z,24.50
2022-09-03T10:30:22.450Z,24.40
2022-09-03T10:33:09.900Z,24.40
2022-09-03T10:35:40.263Z,24.30
2022-09-03T10:38:07.007Z,24.50
2022-09-03T10:40:42.636Z,24.80
2022-09-03T10:43:31.579Z,25.00
2022-09-03T10:45:59.460Z,25.20
2022-09-03T10:48:38.573Z,25.30
2022-09-03T10:51:06.791Z,25.50
2022-09-03T10:53:33.535Z,25.70
2022-09-03T10:56:02.727Z,25.90
2022-09-03T10:58:49.786Z,25.90
2022-09-03T11:01:35.703Z,25.80
2022-09-03T11:04:20.473Z,25.40
2022-09-03T11:06:51.137Z,25.40
2022-09-03T11:09:20.382Z,25.60
2022-09-03T11:11:56.879Z,25.50
2022-09-03T11:14:40.655Z,25.30
2022-09-03T11:17:19.551Z,25.20
2022-09-03T11:19:50.964Z,25.10
2022-09-03T11:22:20.779Z,25.30
2022-09-03T11:24:51.867Z,25.40
2022-09-03T11:27:18.597Z,25.40
2022-09-03T11:30:11.478Z,25.50
2022-09-03T11:32:46.782Z,25.50
2022-09-03T11:35:14.940Z,25.40
2022-09-03T11:37:55.192Z,25.30
2022-09-03T11:40:29.475Z,25.20
2022-09-03T11:43:05.271Z,25.10
2022-09-03T11:45:31.996Z,24.80
2022-09-03T11:47:59.229Z,24.70
2022-09-03T11:50:27.231Z,24.60
2022-09-03T11:52:56.823Z,24.70
2022-09-03T11:55:26.508Z,24.80
2022-09-03T11:57:53.697Z,24.80
2022-09-03T12:00:24.870Z,24.80
2022-09-03T12:02:58.772Z,24.90
2022-09-03T12:05:35.140Z,24.90
2022-09-03T12:08:09.086Z,24.80
2022-09-03T12:10:35.948Z,24.90
2022-09-03T12:13:21.281Z,24.70
2022-09-03T12:15:50.944Z,24.70
2022-09-03T12:18:24.761Z,24.70
2022-09-03T12:21:00.614Z,24.70
2022-09-03T12:23:28.202Z,24.90
2022-09-03T12:25:55.282Z,25.00
2022-09-03T12:28:23.601Z,25.00
2022-09-03T12:30:53.294Z,24.90
2022-09-03T12:33:23.417Z,24.70
2022-09-03T12:36:00.838Z,24.70
2022-09-03T12:38:29.528Z,24.70
2022-09-03T12:43:51.694Z,24.70
2022-09-03T12:46:24.686Z,24.70
2022-09-03T12:52:05.826Z,24.90
2022-09-03T12:54:34.226Z,24.80
2022-09-03T12:57:01.248Z,24.70
2022-09-03T12:59:29.197Z,24.70
2022-09-03T13:01:58.379Z,24.50
2022-09-03T13:04:32.600Z,24.50
2022-09-03T13:07:05.941Z,24.50
2022-09-03T13:09:35.246Z,24.50
2022-09-03T13:12:06.008Z,24.30
2022-09-03T13:14:43.885Z,24.30
2022-09-03T13:17:18.065Z,24.30
2022-09-03T13:20:03.810Z,24.40
2022-09-03T13:22:33.559Z,24.50
2022-09-03T13:25:00.423Z,24.40
2022-09-03T13:27:32.693Z,24.40
2022-09-03T13:30:26.004Z,24.30
2022-09-03T13:32:52.797Z,24.20
2022-09-03T13:35:19.541Z,24.20
2022-09-03T13:37:49.734Z,24.20
2022-09-03T13:40:19.415Z,24.20
2022-09-03T13:42:50.815Z,24.20
2022-09-03T13:45:29.242Z,24.20
2022-09-03T13:48:27.048Z,24.40
2022-09-03T13:51:03.981Z,24.40
2022-09-03T13:53:49.102Z,24.40
2022-09-03T13:56:39.431Z,24.40
2022-09-03T13:59:07.378Z,24.50
2022-09-03T14:01:57.982Z,24.30
2022-09-03T14:04:44.666Z,24.20
2022-09-03T14:07:21.587Z,24.00
2022-09-03T14:09:54.563Z,24.00
2022-09-03T14:12:25.311Z,24.00
2022-09-03T14:14:59.508Z,24.20
2022-09-03T14:17:45.127Z,24.20
2022-09-03T14:20:22.170Z,24.20
2022-09-03T14:22:52.221Z,24.30
2022-09-03T14:25:20.679Z,24.30
2022-09-03T14:27:47.868Z,24.40
2022-09-03T14:30:20.103Z,24.30
2022-09-03T14:33:07.144Z,24.20
2022-09-03T14:35:52.194Z,24.30
2022-09-03T14:38:31.340Z,24.40
2022-09-03T14:41:04.970Z,24.20
2022-09-03T14:43:46.284Z,24.10
2022-09-03T14:46:28.180Z,24.20
2022-09-03T14:49:08.725Z,24.50
2022-09-03T14:51:58.834Z,24.60
2022-09-03T14:54:31.079Z,24.70
2022-09-03T14:57:03.699Z,24.80
2022-09-03T14:59:52.741Z,24.70
2022-09-03T15:02:31.789Z,24.70
2022-09-03T15:05:27.802Z,24.80
2022-09-03T15:07:56.678Z,24.90
2022-09-03T15:10:37.764Z,25.00
2022-09-03T15:13:18.918Z,25.20
2022-09-03T15:16:12.110Z,25.40
2022-09-03T15:19:34.796Z,25.30
2022-09-03T15:22:20.250Z,25.10
2022-09-03T15:25:15.687Z,25.10
2022-09-03T15:27:57.564Z,25.00
2022-09-03T15:30:25.767Z,25.00
2022-09-03T15:32:55.645Z,25.00
2022-09-03T15:35:25.250Z,25.00
2022-09-03T15:37:57.847Z,25.10
2022-09-03T15:40:27.754Z,25.00
2022-09-03T15:43:15.969Z,24.90
2022-09-03T15:45:48.879Z,24.90
2022-09-03T15:48:23.641Z,24.80
2022-09-03T15:50:53.383Z,24.80
2022-09-03T15:53:26.045Z,24.80
2022-09-03T15:56:02.420Z,24.80
2022-09-03T15:58:43.420Z,24.80
2022-09-03T16:01:21.497Z,24.80
2022-09-03T16:04:09.717Z,24.80
2022-09-03T16:07:02.756Z,24.90
2022-09-03T16:09:44.551Z,24.80
2022-09-03T16:12:19.923Z,24.60
2022-09-03T16:14:50.100Z,24.50
2022-09-03T16:17:22.725Z,24.60
2022-09-03T16:19:58.830Z,24.50
2022-09-03T16:22:37.728Z,24.50
2022-09-03T16:25:14.435Z,24.40
2022-09-03T16:27:50.415Z,24.30
2022-09-03T16:30:35.468Z,24.10
2022-09-03T16:33:20.113Z,24.00
2022-09-03T16:36:05.477Z,24.00
2022-09-03T16:38:38.443Z,24.00
2022-09-03T16:41:24.113Z,24.10
2022-09-03T16:44:10.409Z,24.10
2022-09-03T16:46:51.105Z,24.00
2022-09-03T16:49:22.235Z,24.00
2022-09-03T16:51:53.139Z,24.00
2022-09-03T16:54:27.691Z,23.90
2022-09-03T16:56:55.150Z,23.90
2022-09-03T16:59:37.980Z,23.90
2022-09-03T17:02:23.794Z,23.90
2022-09-03T17:05:06.804Z,23.90
2022-09-03T17:08:12.228Z,23.90
2022-09-03T17:10:47.910Z,23.90
2022-09-03T17:13:33.322Z,23.90
2022-09-03T17:16:09.125Z,23.80
2022-09-03T17:18:45.315Z,23.90
2022-09-03T17:21:18.207Z,23.80
2022-09-03T17:24:03.913Z,23.80
2022-09-03T17:26:39.533Z,23.80
2022-09-03T17:29:26.198Z,23.70
2022-09-03T17:32:12.005Z,23.60
2022-09-03T17:34:56.358Z,23.60
2022-09-03T17:37:26.183Z,23.50
2022-09-03T17:39:59.161Z,23.50
2022-09-03T17:42:33.125Z,23.50
2022-09-03T17:45:03.567Z,23.40
2022-09-03T17:47:36.224Z,23.20
2022-09-03T17:50:29.149Z,23.10
2022-09-03T17:53:16.046Z,22.90
2022-09-03T17:55:44.842Z,22.60
2022-09-03T17:58:25.796Z,22.50
2022-09-03T18:01:02.876Z,22.40
2022-09-03T18:03:45.017Z,22.30
2022-09-03T18:06:28.160Z,22.20
2022-09-03T18:09:00.347Z,22.20
2022-09-03T18:11:30.404Z,22.20
2022-09-03T18:14:07.070Z,22.10
2022-09-03T18:16:39.619Z,22.00
2022-09-03T18:19:31.129Z,22.00
2022-09-03T18:22:18.821Z,22.00
2022-09-03T18:25:07.438Z,21.90
2022-09-03T18:27:58.007Z,21.80
2022-09-03T18:30:46.971Z,21.70
2022-09-03T18:33:32.417Z,21.50
2022-09-03T18:36:17.934Z,21.40
2022-09-03T18:39:03.571Z,21.40
2022-09-03T18:41:48.962Z,21.30
2022-09-03T18:45:19.805Z,21.20
2022-09-03T18:48:20.524Z,21.00
2022-09-03T18:51:06.528Z,21.00
2022-09-03T18:53:58.258Z,21.00
2022-09-03T18:56:53.921Z,20.90
2022-09-03T18:59:39.610Z,20.90
2022-09-03T19:02:29.898Z,20.70
2022-09-03T19:05:35.555Z,20.50
2022-09-03T19:08:21.821Z,20.40
2022-09-03T19:11:13.445Z,20.30
2022-09-03T19:13:59.591Z,20.20
2022-09-03T19:17:02.482Z,20.00
2022-09-03T19:19:48.061Z,19.90
2022-09-03T19:22:40.122Z,19.80
2022-09-03T19:25:29.252Z,19.70
2022-09-03T20:14:51.717Z,18.70
2022-09-03T20:17:32.775Z,18.60
2022-09-03T20:20:31.823Z,18.60
2022-09-03T20:23:04.427Z,18.50
2022-09-03T20:25:31.211Z,18.50
2022-09-03T20:27:58.011Z,18.40
2022-09-03T20:30:30.046Z,18.30
2022-09-03T20:32:59.871Z,18.30
2022-09-03T20:35:31.013Z,18.30
2022-09-03T20:38:17.913Z,18.20
2022-09-03T20:40:44.888Z,18.20
2022-09-03T20:43:17.483Z,18.20
2022-09-03T20:46:00.772Z,18.10
2022-09-03T20:48:36.806Z,18.10
2022-09-03T20:51:12.009Z,18.10
2022-09-03T20:53:51.363Z,18.00
2022-09-03T20:56:38.374Z,18.00
2022-09-03T20:59:14.359Z,18.00
2022-09-03T21:01:53.855Z,17.90
2022-09-03T21:04:47.115Z,17.80
2022-09-03T21:07:49.222Z,17.80
2022-09-03T21:10:18.845Z,17.80
2022-09-03T21:12:57.241Z,17.70
2022-09-03T21:15:24.408Z,17.70
2022-09-03T21:18:10.358Z,17.70
2022-09-03T21:20:48.030Z,17.60
2022-09-03T21:23:33.972Z,17.50
2022-09-03T21:26:15.124Z,17.50
2022-09-03T21:28:45.255Z,17.50
2022-09-03T21:31:21.237Z,17.50
2022-09-03T21:33:50.262Z,17.40
2022-09-03T21:36:30.435Z,17.40
2022-09-03T21:38:59.730Z,17.40
2022-09-03T21:41:33.127Z,17.40
2022-09-03T21:44:08.485Z,17.40
2022-09-03T21:46:37.841Z,17.40
2022-09-03T21:49:11.095Z,17.40
2022-09-03T21:51:58.547Z,17.40
2022-09-03T21:54:29.544Z,17.50
2022-09-03T21:57:16.570Z,17.40
2022-09-03T22:00:04.858Z,17.40
2022-09-03T22:02:39.384Z,17.40
2022-09-03T22:05:06.573Z,17.40
2022-09-03T22:07:33.328Z,17.30
2022-09-03T22:10:03.224Z,17.30
2022-09-03T22:12:34.992Z,17.30
2022-09-03T22:15:02.153Z,17.30
2022-09-03T22:17:38.265Z,17.20
2022-09-03T22:20:05.489Z,17.30
2022-09-03T22:22:44.184Z,17.20
2022-09-03T22:25:21.389Z,17.30
2022-09-03T22:28:02.734Z,17.20
2022-09-03T22:30:34.615Z,17.20
2022-09-03T22:33:09.969Z,17.20
2022-09-03T22:35:43.528Z,17.20
2022-09-03T22:38:19.426Z,17.20
2022-09-03T22:40:52.472Z,17.20
2022-09-03T22:43:31.010Z,17.10
2022-09-03T22:46:00.889Z,17.10
2022-09-03T22:48:35.914Z,17.10
2022-09-03T22:51:03.805Z,17.10
2022-09-03T22:53:38.382Z,17.00
2022-09-03T22:56:08.378Z,17.00
2022-09-03T22:58:38.111Z,17.00
2022-09-03T23:01:16.479Z,17.00
2022-09-03T23:03:48.372Z,16.90
2022-09-03T23:06:32.997Z,17.00
2022-09-03T23:09:17.338Z,17.00
2022-09-03T23:11:47.187Z,17.00
2022-09-03T23:14:18.497Z,17.00
2022-09-03T23:16:54.522Z,16.90
2022-09-03T23:19:30.516Z,17.00
2022-09-03T23:22:00.552Z,16.90
2022-09-03T23:24:28.977Z,16.90
2022-09-03T23:26:55.937Z,16.90
2022-09-03T23:29:27.150Z,16.90
2022-09-03T23:31:57.578Z,16.90
2022-09-03T23:34:24.850Z,16.90
2022-09-03T23:37:33.172Z,16.90
2022-09-03T23:40:12.817Z,16.90
2022-09-03T23:42:58.339Z,16.80
2022-09-03T23:45:36.852Z,16.80
2022-09-03T23:48:03.606Z,16.80
2022-09-03T23:50:40.059Z,16.80
2022-09-03T23:53:25.011Z,16.80
2022-09-03T23:55:52.351Z,16.80
2022-09-03T23:58:33.750Z,16.70
